createdAt,value
2018-07-25T00:02:46.783Z,101085.69
2018-07-25T00:07:57.401Z,101078.33
2018-07-25T00:13:06.570Z,101076.47
2018-07-25T00:18:15.900Z,101075.02
2018-07-25T00:23:24.726Z,101073.71
2018-07-25T00:28:33.645Z,101069.56
2018-07-25T00:33:42.722Z,101062.08
2018-07-25T00:38:51.682Z,101067.62
2018-07-25T00:44:00.684Z,101065.86
2018-07-25T00:49:09.777Z,101065.46
2018-07-25T00:54:19.135Z,101065.66
2018-07-25T00:59:28.046Z,101067.77
2018-07-25T01:04:37.000Z,101060.37
2018-07-25T01:09:46.484Z,101057.78
2018-07-25T01:14:55.335Z,101055.06
2018-07-25T01:20:04.623Z,101060.83
2018-07-25T01:25:13.511Z,101054.76
2018-07-25T01:30:22.385Z,101056.10
2018-07-25T01:35:31.690Z,101058.17
2018-07-25T01:40:47.263Z,101060.36
2018-07-25T01:45:57.272Z,101064.83
2018-07-25T01:51:06.742Z,101069.10
2018-07-25T01:56:15.379Z,101068.17
2018-07-25T02:01:24.450Z,101072.62
2018-07-25T02:06:33.638Z,101078.04
2018-07-25T02:11:42.863Z,101077.11
2018-07-25T02:16:52.112Z,101083.46
2018-07-25T02:22:01.234Z,101080.31
2018-07-25T02:27:10.039Z,101085.83
2018-07-25T02:32:19.508Z,101085.38
2018-07-25T02:37:28.412Z,101094.84
2018-07-25T02:42:37.321Z,101092.30
2018-07-25T02:47:46.344Z,101093.97
2018-07-25T02:52:55.328Z,101095.83
2018-07-25T02:58:04.133Z,101095.83
2018-07-25T03:03:13.106Z,101103.06
2018-07-25T03:08:22.683Z,101097.79
2018-07-25T03:13:31.576Z,101108.09
2018-07-25T03:18:40.822Z,101111.41
2018-07-25T03:23:50.411Z,101115.14
2018-07-25T03:28:59.414Z,101120.22
2018-07-25T03:34:08.691Z,101126.14
2018-07-25T03:39:17.965Z,101124.05
2018-07-25T03:44:27.311Z,101127.31
2018-07-25T03:49:36.393Z,101127.67
2018-07-25T03:54:45.694Z,101129.22
2018-07-25T03:59:54.649Z,101135.92
2018-07-25T04:05:05.248Z,101138.46
2018-07-25T04:10:14.277Z,101146.66
2018-07-25T04:15:23.747Z,101144.13
2018-07-25T04:20:32.373Z,101151.91
2018-07-25T04:25:41.589Z,101148.13
2018-07-25T04:30:50.647Z,101153.68
2018-07-25T04:36:10.824Z,101158.83
2018-07-25T04:41:20.764Z,101162.69
2018-07-25T04:46:29.525Z,101158.02
2018-07-25T04:51:39.162Z,101160.36
2018-07-25T04:56:48.523Z,101166.34
2018-07-25T05:01:57.563Z,101168.77
2018-07-25T05:07:06.960Z,101165.68
2018-07-25T05:12:16.979Z,101164.22
2018-07-25T05:17:27.131Z,101165.99
2018-07-25T05:22:36.170Z,101174.41
2018-07-25T05:27:45.362Z,101182.26
2018-07-25T05:32:54.806Z,101178.95
2018-07-25T05:38:04.216Z,101185.98
2018-07-25T05:43:14.919Z,101185.89
2018-07-25T05:48:24.323Z,101179.38
2018-07-25T05:53:33.367Z,101182.49
2018-07-25T05:58:44.987Z,101182.89
2018-07-25T06:03:54.409Z,101182.77
2018-07-25T06:09:05.838Z,101186.34
2018-07-25T06:14:15.815Z,101188.84
2018-07-25T06:19:25.537Z,101197.17
2018-07-25T06:24:35.084Z,101194.60
2018-07-25T06:29:44.315Z,101201.45
2018-07-25T06:34:53.495Z,101199.91
2018-07-25T06:40:03.513Z,101201.21
2018-07-25T06:45:13.276Z,101201.31
2018-07-25T06:50:22.837Z,101204.66
2018-07-25T06:55:32.087Z,101206.00
2018-07-25T07:00:41.726Z,101210.83
2018-07-25T07:05:51.023Z,101214.86
2018-07-25T07:11:00.826Z,101207.22
2018-07-25T07:16:10.662Z,101205.39
2018-07-25T07:21:20.017Z,101202.23
2018-07-25T07:26:29.953Z,101199.23
2018-07-25T07:31:39.240Z,101202.50
2018-07-25T07:36:49.167Z,101201.45
2018-07-25T07:41:59.033Z,101194.31
2018-07-25T07:47:09.167Z,101200.50
2018-07-25T07:52:19.108Z,101203.84
2018-07-25T07:57:29.557Z,101205.00
2018-07-25T08:02:39.369Z,101207.85
2018-07-25T08:07:48.701Z,101206.05
2018-07-25T08:12:58.456Z,101201.02
2018-07-25T08:18:07.475Z,101204.52
2018-07-25T08:23:16.727Z,101199.33
2018-07-25T08:28:28.754Z,101202.84
2018-07-25T08:33:38.608Z,101201.18
2018-07-25T08:38:49.025Z,101193.64
2018-07-25T08:43:58.682Z,101189.90
2018-07-25T08:49:07.901Z,101190.22
2018-07-25T08:54:17.727Z,101191.67
2018-07-25T08:59:27.377Z,101189.31
2018-07-25T09:04:36.605Z,101195.58
2018-07-25T09:09:46.320Z,101195.22
2018-07-25T09:14:55.846Z,101191.56
2018-07-25T09:20:06.011Z,101190.55
2018-07-25T09:25:15.548Z,101183.28
2018-07-25T09:30:25.184Z,101181.73
2018-07-25T09:35:35.202Z,101184.42
2018-07-25T09:40:45.794Z,101174.36
2018-07-25T09:45:55.225Z,101175.28
2018-07-25T09:51:05.290Z,101170.95
2018-07-25T09:56:15.467Z,101175.48
2018-07-25T10:01:25.173Z,101182.19
2018-07-25T10:06:36.116Z,101179.37
2018-07-25T10:11:45.899Z,101172.40
2018-07-25T10:16:55.764Z,101173.64
2018-07-25T10:22:05.899Z,101175.08
2018-07-25T10:27:15.590Z,101177.67
2018-07-25T10:32:25.305Z,101163.08
2018-07-25T10:37:35.333Z,101150.91
2018-07-25T10:42:45.574Z,101150.95
2018-07-25T10:47:55.285Z,101148.92
2018-07-25T10:53:06.500Z,101149.42
2018-07-25T10:58:16.488Z,101141.79
2018-07-25T11:03:26.278Z,101139.02
2018-07-25T11:08:35.524Z,101138.01
2018-07-25T11:13:45.413Z,101135.02
2018-07-25T11:18:54.408Z,101129.89
2018-07-25T11:24:05.084Z,101134.16
2018-07-25T11:29:15.057Z,101133.26
2018-07-25T11:34:25.010Z,101134.78
2018-07-25T11:39:34.754Z,101132.45
2018-07-25T11:44:43.930Z,101124.91
2018-07-25T11:49:53.828Z,101117.12
2018-07-25T11:55:04.506Z,101122.33
2018-07-25T12:00:14.516Z,101110.31
2018-07-25T12:05:24.337Z,101106.30
2018-07-25T12:10:33.314Z,101107.84
2018-07-25T12:15:43.182Z,101105.28
2018-07-25T12:20:52.339Z,101105.17
2018-07-25T12:26:02.246Z,101093.64
2018-07-25T12:31:13.631Z,101093.40
2018-07-25T12:36:23.135Z,101092.62
2018-07-25T12:41:32.844Z,101094.98
2018-07-25T12:46:42.306Z,101086.22
2018-07-25T12:51:52.153Z,101076.78
2018-07-25T12:57:02.400Z,101064.06
2018-07-25T13:02:11.795Z,101070.01
2018-07-25T13:07:21.519Z,101062.12
2018-07-25T13:12:31.285Z,101054.40
2018-07-25T13:17:41.214Z,101053.23
2018-07-25T13:22:51.090Z,101054.58
2018-07-25T13:28:01.127Z,101053.78
2018-07-25T13:33:12.561Z,101053.92
2018-07-25T13:38:22.722Z,101048.77
2018-07-25T13:43:36.563Z,101041.97
2018-07-25T13:48:48.883Z,101041.78
2018-07-25T13:53:59.797Z,101043.44
2018-07-25T13:59:10.443Z,101032.59
2018-07-25T14:04:21.534Z,101017.47
2018-07-25T14:09:32.723Z,101023.66
2018-07-25T14:14:42.858Z,101011.13
2018-07-25T14:19:53.024Z,101014.11
2018-07-25T14:25:02.167Z,101016.64
2018-07-25T14:30:12.200Z,101008.06
2018-07-25T14:35:23.059Z,101001.98
2018-07-25T14:40:32.340Z,100996.64
2018-07-25T14:45:43.019Z,100992.63
2018-07-25T14:50:52.922Z,100991.89
2018-07-25T14:56:03.744Z,100989.22
2018-07-25T15:01:15.469Z,100990.69
2018-07-25T15:06:29.563Z,100996.09
2018-07-25T15:11:41.609Z,100989.36
2018-07-25T15:16:51.667Z,100981.64
2018-07-25T15:22:02.536Z,100998.12
2018-07-25T15:27:13.007Z,100986.42
2018-07-25T15:32:23.115Z,100977.17
2018-07-25T15:37:32.281Z,100976.89
2018-07-25T15:42:41.715Z,100966.10
2018-07-25T15:47:51.696Z,100962.35
2018-07-25T15:53:00.874Z,100973.72
2018-07-25T15:58:11.285Z,100969.98
2018-07-25T16:03:20.822Z,100968.06
2018-07-25T16:08:29.937Z,100966.16
2018-07-25T16:13:39.865Z,100962.22
2018-07-25T16:18:49.615Z,100956.91
2018-07-25T16:23:59.846Z,100952.91
2018-07-25T16:29:09.823Z,100953.37
2018-07-25T16:34:19.890Z,100957.80
2018-07-25T16:39:30.671Z,100970.41
2018-07-25T16:44:40.562Z,100959.45
2018-07-25T16:49:50.591Z,100964.23
2018-07-25T16:54:59.803Z,100963.63
2018-07-25T17:00:09.362Z,100961.94
2018-07-25T17:05:19.063Z,100958.72
2018-07-25T17:10:29.075Z,100959.76
2018-07-25T17:15:40.017Z,100963.77
2018-07-25T17:20:49.455Z,100963.00
2018-07-25T17:25:59.256Z,100962.61
2018-07-25T17:31:09.187Z,100966.01
2018-07-25T17:36:19.586Z,100972.37
2018-07-25T17:41:29.073Z,100973.17
2018-07-25T17:46:39.261Z,100975.03
2018-07-25T17:51:49.082Z,100974.91
2018-07-25T17:56:59.220Z,100973.89
2018-07-25T18:02:08.645Z,100978.58
2018-07-25T18:07:18.439Z,100974.31
2018-07-25T18:12:28.443Z,100973.88
2018-07-25T18:17:38.346Z,100980.17
2018-07-25T18:22:48.597Z,100989.41
2018-07-25T18:27:58.381Z,100987.77
2018-07-25T18:33:08.309Z,100993.41
2018-07-25T18:38:18.882Z,101005.35
2018-07-25T18:43:29.086Z,101012.27
2018-07-25T18:48:38.763Z,101015.27
2018-07-25T18:53:50.698Z,101018.11
2018-07-25T18:58:59.865Z,101026.31
2018-07-25T19:04:15.827Z,101025.76
2018-07-25T19:09:25.612Z,101045.21
2018-07-25T19:14:34.852Z,101050.22
2018-07-25T19:19:45.424Z,101052.48
2018-07-25T19:24:55.017Z,101055.02
2018-07-25T19:30:05.524Z,101064.69
2018-07-25T19:35:14.483Z,101070.23
2018-07-25T19:40:23.393Z,101080.14
2018-07-25T19:45:33.034Z,101086.12
2018-07-25T19:50:44.784Z,101091.88
2018-07-25T19:55:55.448Z,101097.52
2018-07-25T20:01:06.302Z,101101.83
2018-07-25T20:06:15.365Z,101105.58
2018-07-25T20:11:25.500Z,101108.95
2018-07-25T20:16:35.115Z,101116.16
2018-07-25T20:21:44.534Z,101122.92
2018-07-25T20:26:53.905Z,101123.70
2018-07-25T20:32:04.570Z,101125.67
2018-07-25T20:37:19.708Z,101129.23
2018-07-25T20:42:31.135Z,101131.30
2018-07-25T20:47:40.229Z,101134.47
2018-07-25T20:52:50.361Z,101134.45
2018-07-25T20:58:00.890Z,101138.69
2018-07-25T21:03:09.680Z,101137.90
2018-07-25T21:08:20.131Z,101144.00
2018-07-25T21:13:29.419Z,101149.84
2018-07-25T21:18:38.373Z,101148.45
2018-07-25T21:23:47.471Z,101161.39
2018-07-25T21:28:56.562Z,101157.09
2018-07-25T21:34:05.358Z,101162.02
2018-07-25T21:39:14.469Z,101170.25
2018-07-25T21:44:23.504Z,101168.44
2018-07-25T21:49:32.267Z,101175.73
2018-07-25T21:54:41.181Z,101181.83
2018-07-25T21:59:50.278Z,101186.11
2018-07-25T22:04:59.568Z,101184.98
2018-07-25T22:10:09.628Z,101187.41
2018-07-25T22:15:19.232Z,101198.03
2018-07-25T22:20:28.380Z,101194.48
2018-07-25T22:25:37.604Z,101199.42
2018-07-25T22:30:47.047Z,101209.42
2018-07-25T22:35:56.722Z,101201.75
2018-07-25T22:41:05.828Z,101201.91
2018-07-25T22:46:15.781Z,101212.77
2018-07-25T22:51:24.933Z,101206.66
2018-07-25T22:56:33.653Z,101206.95
2018-07-25T23:01:43.733Z,101210.20
2018-07-25T23:06:52.936Z,101211.34
2018-07-25T23:12:01.911Z,101217.49
2018-07-25T23:17:11.065Z,101222.77
2018-07-25T23:22:20.470Z,101222.92
2018-07-25T23:27:29.708Z,101221.70
2018-07-25T23:32:38.866Z,101219.13
2018-07-25T23:37:48.455Z,101219.64
2018-07-25T23:42:57.164Z,101215.44
2018-07-25T23:48:06.577Z,101213.11
2018-07-25T23:53:15.384Z,101209.84
2018-07-25T23:58:24.511Z,101202.15
